Time;durP1;ratioP1;P1;durP2;ratioP2;P2;SDS_P1;SDS_P2;PMS_P1;PMS_P2;Temp;Humidity;BMP_temperature;BMP_pressure;BME280_temperature;BME280_humidity;BME280_pressure;Samples;Min_cycle;Max_cycle;Signal;HPM_P1;HPM_P2
2023/10/15 00:00:18;;;;;;;4.13;0.95;;;;;;;4.55;100.00;97520.59;5043421;28;20046;-64
2023/10/15 00:02:49;;;;;;;3.67;1.45;;;;;;;4.50;100.00;97525.72;5039930;28;20037;-64
2023/10/15 00:05:20;;;;;;;5.28;1.05;;;;;;;4.55;100.00;97522.44;5042474;28;20037;-64
2023/10/15 00:07:49;;;;;;;6.20;1.35;;;;;;;4.57;100.00;97523.03;5040662;28;20123;-64
2023/10/15 00:10:18;;;;;;;6.07;1.27;;;;;;;4.61;100.00;97521.59;5045171;28;20081;-64
2023/10/15 00:12:47;;;;;;;3.60;1.27;;;;;;;4.65;100.00;97514.78;5042384;28;20144;-64
2023/10/15 00:15:23;;;;;;;5.72;1.73;;;;;;;4.88;100.00;97516.16;5041382;28;20119;-64
2023/10/15 00:17:52;;;;;;;3.28;1.05;;;;;;;4.95;100.00;97508.91;5054823;28;20573;-64
2023/10/15 00:20:20;;;;;;;5.45;1.30;;;;;;;5.12;100.00;97508.41;5041166;28;20040;-65
2023/10/15 00:22:49;;;;;;;3.33;0.98;;;;;;;5.27;100.00;97501.97;5046715;28;20037;-64
2023/10/15 00:25:19;;;;;;;4.22;1.05;;;;;;;5.32;100.00;97511.03;5049057;28;20434;-64
2023/10/15 00:27:54;;;;;;;2.63;0.93;;;;;;;5.36;100.00;97513.28;5046640;28;20579;-64
2023/10/15 00:30:22;;;;;;;3.42;0.90;;;;;;;5.36;100.00;97502.53;5040050;28;20102;-65
2023/10/15 00:32:49;;;;;;;5.25;1.00;;;;;;;5.46;100.00;97501.03;5042934;28;20095;-64
2023/10/15 00:35:22;;;;;;;6.25;1.50;;;;;;;5.51;100.00;97508.44;5038031;28;20056;-64
2023/10/15 00:37:54;;;;;;;2.70;0.85;;;;;;;5.63;100.00;97502.38;5047112;28;20159;-65
2023/10/15 00:40:24;;;;;;;2.65;1.13;;;;;;;5.61;100.00;97502.59;5038599;28;20412;-64
2023/10/15 00:42:51;;;;;;;7.80;1.33;;;;;;;5.71;100.00;97499.41;5045557;28;20056;-64
2023/10/15 00:45:19;;;;;;;3.25;1.05;;;;;;;5.78;100.00;97510.16;5049968;28;20045;-64
2023/10/15 00:48:02;;;;;;;3.35;1.10;;;;;;;5.86;100.00;97502.63;5045891;28;20052;-64
2023/10/15 00:50:32;;;;;;;2.42;0.95;;;;;;;5.84;100.00;97501.19;5048290;28;20056;-64
2023/10/15 00:53:05;;;;;;;5.78;1.00;;;;;;;5.80;100.00;97508.88;5041298;28;20524;-64
2023/10/15 00:55:36;;;;;;;4.65;1.15;;;;;;;5.91;100.00;97499.28;5046937;28;20087;-64
2023/10/15 00:58:07;;;;;;;5.78;1.30;;;;;;;5.91;100.00;97501.16;5038526;28;20052;-64
2023/10/15 01:00:39;;;;;;;4.32;0.90;;;;;;;5.89;100.00;97493.31;5038683;28;20052;-64
2023/10/15 01:03:07;;;;;;;2.85;1.13;;;;;;;5.98;100.00;97489.28;5047572;28;20037;-64
2023/10/15 01:05:38;;;;;;;4.15;1.45;;;;;;;6.09;100.00;97486.97;5038622;28;20419;-64
2023/10/15 01:08:05;;;;;;;4.68;1.33;;;;;;;6.14;100.00;97489.81;5045122;28;20048;-64
2023/10/15 01:10:36;;;;;;;4.10;1.02;;;;;;;6.22;100.00;97480.66;5028074;28;20498;-64
2023/10/15 01:13:21;;;;;;;4.90;1.17;;;;;;;6.21;100.00;97479.84;5039749;28;20271;-64
2023/10/15 01:15:53;;;;;;;3.70;1.20;;;;;;;6.26;100.00;97475.66;5037232;28;20781;-65
2023/10/15 01:18:20;;;;;;;5.75;1.20;;;;;;;6.30;100.00;97479.56;5046820;28;20580;-64
2023/10/15 01:20:47;;;;;;;7.50;1.20;;;;;;;6.35;100.00;97477.81;5042771;28;20041;-64
2023/10/15 01:23:28;;;;;;;4.85;1.10;;;;;;;6.43;100.00;97478.59;5041095;28;20120;-64
2023/10/15 01:26:09;;;;;;;3.80;1.00;;;;;;;6.34;100.00;97473.50;5050867;28;20045;-64
2023/10/15 01:28:39;;;;;;;4.90;1.10;;;;;;;6.42;100.00;97475.09;5047355;28;20044;-64
2023/10/15 01:31:06;;;;;;;6.97;1.33;;;;;;;6.45;100.00;97482.69;5037112;28;20279;-64
2023/10/15 01:33:46;;;;;;;4.63;1.50;;;;;;;6.50;100.00;97471.28;5042001;28;20037;-65
2023/10/15 01:36:38;;;;;;;4.85;0.93;;;;;;;6.57;100.00;97482.81;5047130;28;20447;-65
2023/10/15 01:39:10;;;;;;;5.50;0.90;;;;;;;6.66;100.00;97483.31;5046204;28;20606;-64
2023/10/15 01:41:39;;;;;;;2.53;1.00;;;;;;;6.70;100.00;97471.06;5049142;28;20045;-64
2023/10/15 01:44:07;;;;;;;8.57;1.30;;;;;;;6.84;100.00;97481.66;5053308;28;20040;-65
2023/10/15 01:47:06;;;;;;;5.20;1.10;;;;;;;6.93;100.00;97476.81;5054264;28;20048;-65
2023/10/15 01:49:36;;;;;;;2.72;0.90;;;;;;;6.90;100.00;97473.50;5044300;28;20415;-64
2023/10/15 01:52:09;;;;;;;4.97;0.95;;;;;;;6.86;100.00;97472.31;5037823;28;20053;-64
2023/10/15 01:54:38;;;;;;;5.75;1.23;;;;;;;6.91;100.00;97477.03;5035573;28;20080;-65
2023/10/15 01:57:07;;;;;;;10.93;1.20;;;;;;;7.03;100.00;97469.03;5046310;28;20045;-64
2023/10/15 01:59:47;;;;;;;5.22;1.20;;;;;;;7.14;100.00;97470.97;5061358;28;20044;-64
2023/10/15 02:02:17;;;;;;;4.43;1.30;;;;;;;7.25;100.00;97472.06;5044797;28;20132;-64
2023/10/15 02:04:45;;;;;;;2.65;0.80;;;;;;;7.35;100.00;97479.59;5045281;28;20056;-64
2023/10/15 02:07:19;;;;;;;2.80;0.90;;;;;;;7.45;100.00;97470.13;5028922;28;20120;-64
2023/10/15 02:09:47;;;;;;;3.75;0.90;;;;;;;7.49;100.00;97468.63;5033866;28;20136;-65
2023/10/15 02:12:14;;;;;;;5.13;1.00;;;;;;;7.59;100.00;97463.50;5042471;28;20044;-65
2023/10/15 02:14:42;;;;;;;3.15;0.77;;;;;;;7.62;100.00;97465.72;5044533;28;20039;-65
2023/10/15 02:17:13;;;;;;;3.75;1.02;;;;;;;7.63;100.00;97455.78;5051451;28;20132;-64
2023/10/15 02:19:43;;;;;;;3.17;0.80;;;;;;;7.62;100.00;97460.34;5042734;28;20112;-64
2023/10/15 02:22:14;;;;;;;5.07;0.98;;;;;;;7.65;100.00;97457.19;5039301;28;20048;-64
2023/10/15 02:24:46;;;;;;;2.70;1.20;;;;;;;7.65;100.00;97454.50;5031047;28;20037;-64
2023/10/15 02:27:25;;;;;;;4.57;0.95;;;;;;;7.70;100.00;97450.28;5050452;28;20048;-64
2023/10/15 02:29:52;;;;;;;6.47;0.85;;;;;;;7.69;100.00;97454.84;5044285;28;20077;-64
2023/10/15 02:34:57;;;;;;;3.13;0.88;;;;;;;7.65;100.00;97456.38;5045762;28;20399;-64
2023/10/15 02:37:26;;;;;;;5.65;0.82;;;;;;;7.60;100.00;97451.69;5044411;28;20055;-64
2023/10/15 02:39:56;;;;;;;5.07;1.35;;;;;;;7.50;100.00;97451.41;5037712;28;20596;-64
2023/10/15 02:42:34;;;;;;;3.35;0.95;;;;;;;7.42;100.00;97452.56;5041690;28;20057;-64
2023/10/15 02:45:06;;;;;;;5.78;0.75;;;;;;;7.42;100.00;97450.66;5048882;28;20061;-64
2023/10/15 02:47:41;;;;;;;1.42;0.63;;;;;;;7.47;100.00;97452.69;5051643;28;20069;-64
2023/10/15 02:50:15;;;;;;;4.60;0.90;;;;;;;7.47;100.00;97452.69;5041334;28;21765;-63
2023/10/15 02:52:43;;;;;;;3.83;1.10;;;;;;;7.44;100.00;97455.84;5039432;28;20032;-64
2023/10/15 02:55:16;;;;;;;3.33;0.90;;;;;;;7.45;100.00;97449.41;5039164;28;20049;-64
2023/10/15 02:57:43;;;;;;;4.95;0.88;;;;;;;7.41;100.00;97454.41;5045132;28;20044;-63
2023/10/15 03:00:28;;;;;;;7.45;0.98;;;;;;;7.43;100.00;97446.13;5051885;28;20044;-64
2023/10/15 03:02:55;;;;;;;2.15;0.90;;;;;;;7.26;100.00;97454.03;5039230;28;20048;-64
2023/10/15 03:05:31;;;;;;;2.88;1.00;;;;;;;7.22;100.00;97452.84;5044127;28;20099;-64
2023/10/15 03:07:59;;;;;;;2.65;0.85;;;;;;;7.12;100.00;97456.88;5037282;28;20514;-63
2023/10/15 03:10:55;;;;;;;4.75;0.85;;;;;;;6.95;100.00;97456.69;5038765;28;21348;-64
2023/10/15 03:13:22;;;;;;;5.30;1.30;;;;;;;6.93;100.00;97453.41;5040439;28;20128;-64
2023/10/15 03:15:48;;;;;;;4.63;0.93;;;;;;;6.84;100.00;97452.91;5043130;28;20573;-64
2023/10/15 03:18:22;;;;;;;2.10;0.80;;;;;;;6.81;100.00;97453.34;5035837;28;20065;-65
2023/10/15 03:21:00;;;;;;;3.55;1.00;;;;;;;6.83;100.00;97455.81;5041898;28;20040;-64
2023/10/15 03:23:27;;;;;;;2.65;1.00;;;;;;;6.77;100.00;97449.47;5038201;28;20036;-64
2023/10/15 03:25:57;;;;;;;6.03;1.10;;;;;;;6.72;100.00;97452.84;5036569;28;20649;-64
2023/10/15 03:28:25;;;;;;;4.05;1.00;;;;;;;6.72;100.00;97455.53;5041419;28;20037;-64
2023/10/15 03:30:55;;;;;;;2.30;0.88;;;;;;;6.68;100.00;97448.13;5041606;28;20086;-64
2023/10/15 03:33:30;;;;;;;3.55;1.13;;;;;;;6.76;100.00;97456.72;5043894;28;20254;-64
2023/10/15 03:35:57;;;;;;;3.08;0.95;;;;;;;6.88;100.00;97464.03;5042037;28;20045;-63
2023/10/15 03:38:24;;;;;;;4.50;1.05;;;;;;;7.00;100.00;97456.84;5032701;28;20072;-63
2023/10/15 03:40:50;;;;;;;3.85;0.80;;;;;;;7.14;100.00;97460.19;5043612;28;20098;-63
2023/10/15 03:43:20;;;;;;;5.07;1.10;;;;;;;7.30;100.00;97455.22;5050188;28;20055;-63
2023/10/15 03:45:50;;;;;;;6.57;0.88;;;;;;;7.49;100.00;97455.16;5042103;28;20087;-63
2023/10/15 03:48:21;;;;;;;2.85;1.08;;;;;;;7.64;100.00;97454.72;5042681;28;20466;-63
2023/10/15 03:50:54;;;;;;;5.05;0.77;;;;;;;7.64;100.00;97458.25;5053780;28;20056;-64
2023/10/15 03:53:27;;;;;;;5.53;0.95;;;;;;;7.70;100.00;97458.38;5048616;28;20044;-64
2023/10/15 03:56:00;;;;;;;3.72;0.90;;;;;;;7.60;100.00;97457.06;5041692;28;20045;-64
2023/10/15 03:58:28;;;;;;;3.38;0.93;;;;;;;7.51;100.00;97463.81;5043126;28;20567;-64
2023/10/15 04:01:17;;;;;;;4.20;1.13;;;;;;;7.56;100.00;97463.97;5041587;28;20051;-65
2023/10/15 04:03:49;;;;;;;6.88;1.10;;;;;;;7.49;100.00;97460.53;5037684;28;20043;-64
2023/10/15 04:06:18;;;;;;;3.55;0.80;;;;;;;7.54;100.00;97453.41;5039438;28;20527;-65
2023/10/15 04:11:42;;;;;;;2.58;1.00;;;;;;;7.57;100.00;97457.53;5037945;28;20080;-64
2023/10/15 04:14:16;;;;;;;2.60;1.00;;;;;;;7.58;100.00;97466.41;5049963;28;20040;-65
2023/10/15 04:16:44;;;;;;;5.90;1.00;;;;;;;7.56;100.00;97466.66;5039308;28;20041;-64
2023/10/15 04:19:12;;;;;;;2.63;1.02;;;;;;;7.39;100.00;97467.31;5046475;28;20037;-64
2023/10/15 04:21:42;;;;;;;6.68;1.05;;;;;;;7.40;100.00;97468.13;5038002;28;20037;-65
2023/10/15 04:24:09;;;;;;;8.40;1.42;;;;;;;7.26;100.00;97472.88;5039972;28;20554;-64
2023/10/15 04:26:40;;;;;;;5.45;1.27;;;;;;;7.15;100.00;97469.91;5046342;28;20048;-64
2023/10/15 04:29:16;;;;;;;2.78;1.10;;;;;;;7.12;100.00;97472.22;5041074;28;20045;-64
2023/10/15 04:31:56;;;;;;;4.45;1.40;;;;;;;7.15;100.00;97461.81;5037855;28;20558;-64
2023/10/15 04:34:25;;;;;;;5.13;1.40;;;;;;;7.24;100.00;97467.72;5042926;28;20037;-64
2023/10/15 04:36:54;;;;;;;5.78;1.75;;;;;;;7.20;100.00;97471.09;5039446;28;20045;-64
2023/10/15 04:39:22;;;;;;;6.65;1.17;;;;;;;7.19;100.00;97480.22;5046823;28;20158;-64
2023/10/15 04:42:10;;;;;;;7.53;1.67;;;;;;;7.16;100.00;97476.91;5044342;28;20041;-65
2023/10/15 04:44:36;;;;;;;6.63;1.60;;;;;;;7.18;100.00;97475.91;5044196;28;20052;-64
2023/10/15 04:47:06;;;;;;;7.32;1.85;;;;;;;7.27;100.00;97477.22;5035343;28;20369;-65
2023/10/15 04:49:34;;;;;;;;;;;;;;;7.34;100.00;97479.81;5057316;28;20049;-64
2023/10/15 04:52:01;;;;;;;6.93;1.77;;;;;;;7.42;100.00;97480.31;5039482;28;19921;-66
2023/10/15 04:54:27;;;;;;;4.50;1.50;;;;;;;7.42;100.00;97474.13;5033521;28;20037;-64
2023/10/15 04:56:57;;;;;;;7.35;2.15;;;;;;;7.45;100.00;97484.44;5040252;28;20106;-64
2023/10/15 04:59:23;;;;;;;6.05;1.85;;;;;;;7.34;100.00;97477.94;5039642;28;20118;-65
2023/10/15 05:01:50;;;;;;;5.43;1.45;;;;;;;7.34;100.00;97485.19;5043437;28;20075;-64
2023/10/15 05:04:16;;;;;;;3.10;1.40;;;;;;;7.33;100.00;97487.06;5036699;28;20053;-65
2023/10/15 05:06:43;;;;;;;5.10;1.55;;;;;;;7.24;100.00;97483.88;5039217;28;20110;-65
2023/10/15 05:09:20;;;;;;;8.32;1.70;;;;;;;7.23;100.00;97484.09;5046428;28;20043;-64
2023/10/15 05:11:49;;;;;;;6.43;1.42;;;;;;;7.21;100.00;97478.13;5039871;28;20037;-64
2023/10/15 05:14:19;;;;;;;4.32;1.70;;;;;;;7.27;100.00;97479.91;5034251;28;20229;-64
2023/10/15 05:16:46;;;;;;;6.50;1.80;;;;;;;7.14;100.00;97479.03;5046613;28;20047;-64
2023/10/15 05:19:19;;;;;;;8.88;1.58;;;;;;;7.12;100.00;97481.13;5044159;28;20527;-64
2023/10/15 05:21:46;;;;;;;4.40;1.50;;;;;;;7.08;100.00;97482.63;5046337;28;20123;-64
2023/10/15 05:24:21;;;;;;;5.82;1.58;;;;;;;7.11;100.00;97481.38;5039049;28;20041;-64
2023/10/15 05:26:48;;;;;;;7.10;1.58;;;;;;;7.05;100.00;97485.78;5038992;28;20036;-65
2023/10/15 05:29:15;;;;;;;8.45;2.10;;;;;;;7.08;100.00;97493.38;5047849;28;20053;-64
2023/10/15 05:31:43;;;;;;;7.65;2.30;;;;;;;7.03;100.00;97494.09;5037359;28;20385;-64
2023/10/15 05:34:10;;;;;;;3.78;1.50;;;;;;;7.11;100.00;97487.56;5048405;28;20120;-64
2023/10/15 05:36:37;;;;;;;6.18;1.45;;;;;;;7.10;100.00;97496.69;5046693;28;20051;-65
2023/10/15 05:39:06;;;;;;;7.90;2.15;;;;;;;7.08;100.00;97503.34;5046708;28;20037;-64
2023/10/15 05:41:34;;;;;;;8.63;2.22;;;;;;;7.03;100.00;97504.03;5050239;28;20041;-64
2023/10/15 05:44:01;;;;;;;5.80;2.15;;;;;;;7.02;100.00;97500.53;5048876;28;20455;-64
2023/10/15 05:46:29;;;;;;;5.82;2.05;;;;;;;6.98;100.00;97499.31;5037663;28;20041;-65
2023/10/15 05:48:59;;;;;;;9.23;2.20;;;;;;;7.01;100.00;97519.59;5048267;28;20072;-65
2023/10/15 05:51:26;;;;;;;9.57;2.08;;;;;;;6.97;100.00;97511.13;5038262;28;20104;-65
2023/10/15 05:53:52;;;;;;;7.63;1.88;;;;;;;6.93;100.00;97514.50;5048301;28;20134;-64
2023/10/15 05:56:21;;;;;;;5.30;1.80;;;;;;;6.86;100.00;97518.06;5038769;28;20041;-65
2023/10/15 05:58:49;;;;;;;4.00;1.88;;;;;;;6.81;100.00;97517.94;5043555;28;20818;-65
2023/10/15 06:01:15;;;;;;;4.65;1.67;;;;;;;6.90;100.00;97524.66;5031932;28;20086;-64
2023/10/15 06:03:45;;;;;;;4.95;1.88;;;;;;;6.80;100.00;97523.53;5033693;28;20051;-64
2023/10/15 06:06:12;;;;;;;6.15;2.17;;;;;;;6.75;100.00;97533.09;5042166;28;20051;-64
2023/10/15 06:08:39;;;;;;;5.55;1.80;;;;;;;6.63;100.00;97532.19;5039198;28;20645;-65
2023/10/15 06:11:05;;;;;;;5.55;2.15;;;;;;;6.68;100.00;97529.69;5032180;28;20151;-65
2023/10/15 06:13:32;;;;;;;5.97;2.28;;;;;;;6.70;100.00;97535.66;5045979;28;20044;-64
2023/10/15 06:16:00;;;;;;;7.97;2.20;;;;;;;6.63;100.00;97534.88;5045746;28;20467;-63
2023/10/15 06:18:27;;;;;;;5.55;2.30;;;;;;;6.68;100.00;97540.44;5044217;28;20044;-64
2023/10/15 06:20:54;;;;;;;7.15;2.47;;;;;;;6.73;100.00;97545.13;5042369;28;20099;-65
2023/10/15 06:23:20;;;;;;;10.85;2.80;;;;;;;6.71;100.00;97548.06;5044579;28;20044;-63
2023/10/15 06:25:47;;;;;;;8.13;2.38;;;;;;;6.74;100.00;97552.16;5054969;28;20036;-63
2023/10/15 06:28:14;;;;;;;6.78;2.47;;;;;;;6.75;100.00;97556.53;5043572;28;20566;-64
2023/10/15 06:30:42;;;;;;;6.88;2.25;;;;;;;6.78;100.00;97557.94;5042414;28;20419;-64
2023/10/15 06:33:09;;;;;;;7.60;2.38;;;;;;;6.84;100.00;97557.88;5040906;28;20084;-63
2023/10/15 06:35:35;;;;;;;7.40;2.30;;;;;;;6.88;100.00;97559.06;5053438;28;20048;-63
2023/10/15 06:38:02;;;;;;;5.55;2.42;;;;;;;6.96;100.00;97565.22;5044647;28;20044;-64
2023/10/15 06:40:29;;;;;;;6.53;2.70;;;;;;;6.94;100.00;97562.75;5043046;28;20118;-63
2023/10/15 06:43:01;;;;;;;8.98;2.50;;;;;;;7.00;100.00;97558.31;5049996;28;20106;-63
2023/10/15 06:45:29;;;;;;;7.68;2.30;;;;;;;7.07;100.00;97560.94;5049151;28;20041;-63
2023/10/15 06:47:56;;;;;;;9.75;2.80;;;;;;;7.11;100.00;97562.94;5042895;28;20511;-64
2023/10/15 06:50:23;;;;;;;9.65;2.80;;;;;;;7.18;100.00;97570.16;5043363;28;20043;-63
2023/10/15 06:52:54;;;;;;;8.77;2.55;;;;;;;7.18;100.00;97570.16;5043629;28;20048;-64
2023/10/15 06:55:21;;;;;;;5.35;2.45;;;;;;;7.24;100.00;97570.06;5044964;28;20048;-64
2023/10/15 06:57:49;;;;;;;9.85;2.67;;;;;;;7.33;100.00;97569.75;5051345;28;20041;-64
2023/10/15 07:00:23;;;;;;;7.15;2.35;;;;;;;7.32;100.00;97568.09;5038226;28;20072;-63
2023/10/15 07:02:51;;;;;;;5.75;2.05;;;;;;;7.48;100.00;97563.97;5037846;28;20037;-63
2023/10/15 07:05:20;;;;;;;8.88;2.45;;;;;;;7.49;100.00;97573.69;5040243;28;20563;-63
2023/10/15 07:07:47;;;;;;;7.75;2.42;;;;;;;7.47;100.00;97568.53;5039436;28;20077;-64
2023/10/15 07:10:15;;;;;;;4.60;2.28;;;;;;;7.47;100.00;97576.63;5036475;28;20061;-63
2023/10/15 07:12:47;;;;;;;6.43;1.85;;;;;;;7.47;100.00;97575.78;5051064;28;20059;-63
2023/10/15 07:15:16;;;;;;;6.53;1.90;;;;;;;7.42;100.00;97577.28;5046874;28;20090;-63
2023/10/15 07:17:44;;;;;;;4.20;1.65;;;;;;;7.42;100.00;97577.28;5037734;28;20037;-64
2023/10/15 07:20:17;;;;;;;4.50;1.88;;;;;;;7.43;100.00;97586.19;5043303;28;20127;-63
2023/10/15 07:22:46;;;;;;;8.25;1.67;;;;;;;7.46;100.00;97579.53;5042515;28;20123;-64
2023/10/15 07:25:14;;;;;;;7.65;1.73;;;;;;;7.47;100.00;97584.72;5041185;28;20068;-63
2023/10/15 07:27:45;;;;;;;5.78;1.77;;;;;;;7.64;100.00;97592.16;5039586;28;20069;-63
2023/10/15 07:30:13;;;;;;;7.67;1.83;;;;;;;7.80;100.00;97585.31;5036138;28;20041;-64
2023/10/15 07:32:42;;;;;;;5.63;1.60;;;;;;;7.96;100.00;97583.84;5040821;28;20553;-64
2023/10/15 07:35:14;;;;;;;5.78;1.52;;;;;;;8.12;100.00;97585.06;5049374;28;20107;-64
2023/10/15 07:37:42;;;;;;;;;;;;;;;8.26;100.00;97587.56;5041380;28;20102;-63
2023/10/15 07:40:17;;;;;;;4.90;1.50;;;;;;;8.31;100.00;97587.69;5046169;28;19920;-64
2023/10/15 07:42:48;;;;;;;7.38;1.60;;;;;;;8.33;100.00;97588.25;5041217;28;20072;-64
2023/10/15 07:45:16;;;;;;;;;;;;;;;8.39;100.00;97589.22;5040456;28;20052;-64
2023/10/15 07:47:44;;;;;;;11.77;2.17;;;;;;;8.62;100.00;97596.53;5049402;28;19927;-64
2023/10/15 07:50:18;;;;;;;6.57;1.90;;;;;;;8.77;100.00;97596.09;5039210;28;20056;-64
2023/10/15 07:52:47;;;;;;;5.20;1.90;;;;;;;8.81;100.00;97591.06;5045596;28;20041;-65
2023/10/15 07:55:13;;;;;;;4.97;1.67;;;;;;;8.85;100.00;97593.03;5039602;28;20063;-64
2023/10/15 07:57:40;;;;;;;6.28;1.85;;;;;;;9.03;100.00;97590.44;5039941;28;20040;-64
2023/10/15 08:00:09;;;;;;;5.85;1.70;;;;;;;9.09;100.00;97600.31;5039836;28;20194;-64
2023/10/15 08:02:39;;;;;;;6.25;1.95;;;;;;;9.10;100.00;97604.63;5046532;28;20577;-64
2023/10/15 08:05:06;;;;;;;4.85;1.98;;;;;;;8.97;100.00;97603.03;5049819;28;20048;-65
2023/10/15 08:07:36;;;;;;;6.00;1.83;;;;;;;8.71;100.00;97605.94;5042542;28;20040;-65
2023/10/15 08:10:04;;;;;;;5.38;1.75;;;;;;;8.91;100.00;97607.47;5043704;28;20055;-64
2023/10/15 08:12:31;;;;;;;4.82;1.45;;;;;;;8.90;100.00;97616.66;5042285;28;20052;-65
2023/10/15 08:14:58;;;;;;;6.90;1.58;;;;;;;8.90;100.00;97607.72;5039427;28;20064;-64
2023/10/15 08:17:24;;;;;;;4.80;1.42;;;;;;;8.80;100.00;97611.81;5036645;28;20055;-65
2023/10/15 08:19:51;;;;;;;6.88;1.70;;;;;;;9.03;100.00;97606.66;5037964;28;20060;-65
2023/10/15 08:22:18;;;;;;;7.65;1.95;;;;;;;9.30;100.00;97617.78;5038342;28;20055;-66
2023/10/15 08:24:45;;;;;;;5.80;1.48;;;;;;;9.23;100.00;97617.91;5047842;28;20048;-64
2023/10/15 08:27:13;;;;;;;3.50;1.50;;;;;;;9.02;100.00;97622.03;5041875;28;20504;-65
2023/10/15 08:29:41;;;;;;;8.18;1.52;;;;;;;8.83;100.00;97618.63;5043400;28;20072;-65
2023/10/15 08:32:16;;;;;;;7.43;1.83;;;;;;;8.93;100.00;97618.06;5033283;28;20562;-64
2023/10/15 08:34:44;;;;;;;7.50;1.58;;;;;;;9.07;100.00;97607.84;5040333;28;20037;-66
2023/10/15 08:37:11;;;;;;;4.93;1.63;;;;;;;9.15;100.00;97609.34;5032943;28;20041;-64
2023/10/15 08:39:40;;;;;;;8.80;2.28;;;;;;;8.87;100.00;97603.59;5041102;28;20731;-65
2023/10/15 08:42:13;;;;;;;7.40;1.63;;;;;;;8.75;100.00;97616.28;5050051;28;20048;-65
2023/10/15 08:44:41;;;;;;;3.65;1.52;;;;;;;8.65;100.00;97614.16;5041800;28;20047;-64
2023/10/15 08:47:11;;;;;;;9.00;1.77;;;;;;;8.46;100.00;97620.44;5048356;28;20048;-65
2023/10/15 08:49:45;;;;;;;7.65;1.63;;;;;;;8.53;100.00;97622.25;5038035;28;20124;-64
2023/10/15 08:52:14;;;;;;;6.07;1.70;;;;;;;8.49;100.00;97623.72;5045138;28;20052;-64
2023/10/15 08:54:43;;;;;;;4.65;1.60;;;;;;;8.32;100.00;97619.84;5039231;28;20044;-64
2023/10/15 08:57:09;;;;;;;4.05;1.67;;;;;;;8.29;100.00;97616.78;5035934;28;20098;-64
2023/10/15 08:59:37;;;;;;;7.28;1.80;;;;;;;8.35;100.00;97618.53;5045559;28;20053;-64
2023/10/15 09:02:08;;;;;;;7.07;1.80;;;;;;;8.60;100.00;97612.16;5028431;28;20057;-64
2023/10/15 09:04:35;;;;;;;5.60;1.63;;;;;;;9.05;100.00;97610.75;5040451;28;20051;-65
2023/10/15 09:07:05;;;;;;;3.85;1.60;;;;;;;9.24;100.00;97618.72;5051737;28;20052;-64
2023/10/15 09:09:33;;;;;;;3.63;1.50;;;;;;;9.31;100.00;97619.44;5032929;28;20044;-64
2023/10/15 09:12:00;;;;;;;5.00;1.38;;;;;;;9.10;100.00;97618.97;5033714;28;20045;-64
2023/10/15 09:14:38;;;;;;;5.53;1.42;;;;;;;9.14;100.00;97621.22;5042717;28;20507;-64
2023/10/15 09:17:09;;;;;;;7.10;1.50;;;;;;;8.96;100.00;97628.38;5032505;28;20049;-64
2023/10/15 09:19:39;;;;;;;3.17;1.35;;;;;;;9.12;100.00;97624.16;5037436;28;20132;-64
2023/10/15 09:22:06;;;;;;;6.00;1.20;;;;;;;9.19;99.66;97619.44;5038275;28;20051;-63
2023/10/15 09:24:34;;;;;;;4.22;1.33;;;;;;;9.36;98.03;97637.63;5036224;28;20048;-63
2023/10/15 09:27:01;;;;;;;4.30;1.27;;;;;;;9.60;94.20;97638.41;5037311;28;20697;-64
2023/10/15 09:29:30;;;;;;;4.00;1.10;;;;;;;9.78;94.07;97635.75;5029671;28;20114;-63
2023/10/15 09:32:01;;;;;;;3.25;0.93;;;;;;;10.01;89.18;97630.28;5034204;28;20076;-64
2023/10/15 09:34:29;;;;;;;4.03;0.98;;;;;;;9.74;86.49;97638.94;5036137;28;20069;-64
2023/10/15 09:36:58;;;;;;;6.43;1.40;;;;;;;9.91;88.47;97637.38;5042339;28;20055;-64
2023/10/15 09:39:28;;;;;;;3.35;1.10;;;;;;;9.80;90.03;97636.34;5036241;28;20056;-63
2023/10/15 09:42:02;;;;;;;4.95;0.90;;;;;;;9.80;89.23;97641.75;5041679;28;20546;-64
2023/10/15 09:44:32;;;;;;;7.45;1.63;;;;;;;9.80;89.37;97644.47;5046172;28;20417;-64
2023/10/15 09:47:01;;;;;;;5.90;1.05;;;;;;;9.66;93.58;97636.59;5044302;28;20558;-64
2023/10/15 09:49:33;;;;;;;5.72;1.02;;;;;;;9.41;89.94;97645.03;5048265;28;20501;-64
2023/10/15 09:52:10;;;;;;;5.30;1.05;;;;;;;9.23;89.91;97649.50;5044417;28;20047;-64
2023/10/15 09:54:37;;;;;;;5.95;1.38;;;;;;;9.15;91.08;97650.69;5041588;28;20066;-64
2023/10/15 09:57:05;;;;;;;4.43;0.90;;;;;;;8.95;91.85;97645.63;5043373;28;20053;-64
2023/10/15 09:59:32;;;;;;;5.70;1.20;;;;;;;9.03;91.14;97641.78;5038656;28;20896;-64
2023/10/15 10:02:06;;;;;;;3.30;0.90;;;;;;;8.96;92.82;97637.28;5040561;28;20362;-66
2023/10/15 10:04:52;;;;;;;2.42;0.90;;;;;;;8.73;93.22;97632.72;5043096;28;20069;-64
2023/10/15 10:07:40;;;;;;;5.13;1.35;;;;;;;8.91;91.96;97634.47;5045185;28;20076;-66
2023/10/15 10:10:51;;;;;;;4.47;0.90;;;;;;;9.21;87.34;97624.59;5042894;28;20520;-64
2023/10/15 10:13:51;;;;;;;3.40;0.90;;;;;;;9.69;86.25;97630.72;5038002;28;20464;-65
2023/10/15 10:16:24;;;;;;;6.75;1.10;;;;;;;9.86;84.95;97624.56;5036059;28;20483;-65
2023/10/15 10:18:51;;;;;;;4.40;1.33;;;;;;;9.85;83.79;97620.22;5037245;28;20057;-65
2023/10/15 10:21:19;;;;;;;5.63;1.05;;;;;;;9.74;82.96;97625.41;5045472;28;20055;-66
2023/10/15 10:23:50;;;;;;;5.90;1.30;;;;;;;9.50;83.41;97627.38;5043555;28;20041;-67
2023/10/15 10:26:19;;;;;;;6.30;1.05;;;;;;;9.30;82.81;97622.34;5045168;28;20070;-66
2023/10/15 10:28:46;;;;;;;4.97;1.60;;;;;;;9.26;83.31;97634.69;5038893;28;20045;-60
2023/10/15 10:31:14;;;;;;;2.08;0.90;;;;;;;9.27;85.74;97629.06;5048054;28;20056;-61
2023/10/15 10:33:46;;;;;;;5.35;1.77;;;;;;;9.25;86.30;97636.56;5042571;28;20106;-60
2023/10/15 10:36:27;;;;;;;4.63;1.33;;;;;;;9.24;87.74;97634.94;5043126;28;20041;-60
2023/10/15 10:39:13;;;;;;;3.50;1.23;;;;;;;9.28;89.34;97633.41;5051261;28;20135;-61
2023/10/15 10:41:45;;;;;;;6.97;1.08;;;;;;;9.11;91.01;97639.53;5039775;28;20059;-61
2023/10/15 10:44:39;;;;;;;3.53;0.80;;;;;;;8.64;94.34;97637.63;5042286;28;20048;-61
2023/10/15 10:47:21;;;;;;;5.20;1.20;;;;;;;8.34;94.76;97635.78;5047472;28;20040;-61
2023/10/15 10:49:56;;;;;;;5.72;1.15;;;;;;;8.27;95.23;97633.19;5045260;28;20049;-60
2023/10/15 10:52:33;;;;;;;3.85;1.17;;;;;;;8.28;95.66;97629.44;5043736;28;20131;-65
2023/10/15 10:55:31;;;;;;;5.50;1.92;;;;;;;8.22;94.36;97626.84;5050076;28;20053;-65
2023/10/15 10:58:02;;;;;;;1.92;0.90;;;;;;;8.30;95.75;97627.31;5043302;28;20132;-61
2023/10/15 11:00:32;;;;;;;5.75;1.38;;;;;;;8.53;93.43;97616.84;5048931;28;20055;-65
2023/10/15 11:03:06;;;;;;;3.42;1.27;;;;;;;8.96;93.14;97621.09;5045183;28;20060;-66
2023/10/15 11:05:34;;;;;;;2.92;0.90;;;;;;;9.24;93.56;97618.72;5047419;28;20542;-65
2023/10/15 11:08:00;;;;;;;4.65;1.10;;;;;;;9.47;89.35;97612.44;5042274;28;20052;-60
2023/10/15 11:10:31;;;;;;;3.70;1.30;;;;;;;9.72;87.23;97616.75;5049041;28;20621;-62
2023/10/15 11:12:58;;;;;;;3.90;0.95;;;;;;;10.20;83.40;97616.53;5052341;28;20048;-66
2023/10/15 11:15:25;;;;;;;5.13;1.13;;;;;;;10.54;78.05;97607.63;5047038;28;20515;-66
2023/10/15 11:17:55;;;;;;;4.47;0.93;;;;;;;10.66;77.49;97616.50;5058310;28;20499;-62
2023/10/15 11:20:24;;;;;;;5.00;0.90;;;;;;;10.73;74.71;97626.38;5044646;28;20064;-60
2023/10/15 11:22:51;;;;;;;4.43;0.98;;;;;;;10.45;77.81;97626.19;5036460;28;20064;-60
2023/10/15 11:25:19;;;;;;;4.43;1.10;;;;;;;10.09;78.51;97623.66;5049298;28;20048;-64
2023/10/15 11:27:46;;;;;;;2.97;0.95;;;;;;;9.89;79.21;97629.50;5035136;28;20045;-63
2023/10/15 11:30:13;;;;;;;3.65;0.85;;;;;;;9.86;76.27;97628.09;5050799;28;20507;-63
2023/10/15 11:32:40;;;;;;;3.47;0.70;;;;;;;10.02;76.03;97621.09;5047817;28;20132;-62
2023/10/15 11:35:07;;;;;;;5.13;1.35;;;;;;;9.99;75.01;97628.88;5054193;28;20523;-61
2023/10/15 11:37:35;;;;;;;5.80;1.98;;;;;;;9.78;74.03;97627.66;5051855;28;20106;-60
2023/10/15 11:40:01;;;;;;;2.55;0.65;;;;;;;9.91;73.39;97624.66;5051098;28;20415;-65
2023/10/15 11:42:28;;;;;;;3.00;1.00;;;;;;;9.75;73.09;97620.84;5045411;28;20053;-66
2023/10/15 11:44:56;;;;;;;5.18;0.90;;;;;;;9.69;73.55;97625.31;5046601;28;20072;-61
2023/10/15 11:47:28;;;;;;;5.35;0.90;;;;;;;9.83;73.75;97622.34;5043085;28;20073;-63
2023/10/15 11:49:55;;;;;;;3.03;0.90;;;;;;;9.76;75.18;97623.31;5040568;28;20663;-61
2023/10/15 11:52:24;;;;;;;2.17;0.95;;;;;;;9.86;75.43;97621.84;5041465;28;20057;-63
2023/10/15 11:54:51;;;;;;;4.97;0.70;;;;;;;9.93;73.34;97627.13;5037841;28;20415;-63
2023/10/15 11:57:25;;;;;;;2.47;0.75;;;;;;;9.97;74.63;97622.88;5050373;28;20041;-62